Time;durP1;ratioP1;P1;durP2;ratioP2;P2;SDS_P1;SDS_P2;PMS_P1;PMS_P2;Temp;Humidity;BMP_temperature;BMP_pressure;BME280_temperature;BME280_humidity;BME280_pressure;Samples;Min_cycle;Max_cycle;Signal;HPM_P1;HPM_P2
2023/12/28 00:02:19;;;;;;;6.50;2.92;;;;;;;;;;4992899;28;20138;-72
2023/12/28 00:04:45;;;;;;;6.30;2.85;;;;;;;;;;4993646;28;20373;-73
2023/12/28 00:07:12;;;;;;;7.57;3.08;;;;;;;;;;4996176;28;20129;-73
2023/12/28 00:09:38;;;;;;;9.02;3.17;;;;;;;;;;4996320;28;20523;-73
2023/12/28 00:12:05;;;;;;;7.32;3.05;;;;;;;;;;4996237;28;20050;-73
2023/12/28 00:14:31;;;;;;;7.30;3.33;;;;;;;;;;4977951;28;20046;-73
2023/12/28 00:16:57;;;;;;;5.95;2.88;;;;;;;;;;4996128;28;20137;-73
2023/12/28 00:19:23;;;;;;;9.18;3.85;;;;;;;;;;4977828;28;20084;-73
2023/12/28 00:21:49;;;;;;;6.75;2.97;;;;;;;;;;4995623;28;20122;-73
2023/12/28 00:24:16;;;;;;;6.05;2.75;;;;;;;;;;4995217;28;20051;-73
2023/12/28 00:26:42;;;;;;;9.35;3.50;;;;;;;;;;4993365;28;20046;-73
2023/12/28 00:29:08;;;;;;;7.75;3.50;;;;;;;;;;4980545;28;20044;-73
2023/12/28 00:31:34;;;;;;;7.57;3.20;;;;;;;;;;4995099;28;20487;-73
2023/12/28 00:34:01;;;;;;;9.20;3.80;;;;;;;;;;4980420;28;20054;-73
2023/12/28 00:36:27;;;;;;;7.18;3.60;;;;;;;;;;4976354;28;20054;-73
2023/12/28 00:38:53;;;;;;;7.95;3.95;;;;;;;;;;4983919;28;20054;-73
2023/12/28 00:41:19;;;;;;;8.23;3.55;;;;;;;;;;4992688;28;20043;-73
2023/12/28 00:43:45;;;;;;;7.25;3.70;;;;;;;;;;4994937;28;20043;-73
2023/12/28 00:46:11;;;;;;;8.63;3.58;;;;;;;;;;4995618;28;20501;-73
2023/12/28 00:48:37;;;;;;;7.40;3.50;;;;;;;;;;4993403;28;20404;-73
2023/12/28 00:51:03;;;;;;;8.13;4.00;;;;;;;;;;4976929;28;20505;-73
2023/12/28 00:53:29;;;;;;;9.85;3.70;;;;;;;;;;4979432;28;20046;-73
2023/12/28 00:55:55;;;;;;;8.57;3.70;;;;;;;;;;4995222;28;20043;-73
2023/12/28 00:58:22;;;;;;;8.38;3.40;;;;;;;;;;4981018;28;20058;-73
2023/12/28 01:00:48;;;;;;;7.35;3.60;;;;;;;;;;4993530;28;20050;-73
2023/12/28 01:03:14;;;;;;;9.55;3.95;;;;;;;;;;4987448;28;20373;-73
2023/12/28 01:05:40;;;;;;;7.88;4.05;;;;;;;;;;4994847;28;20046;-73
2023/12/28 01:08:06;;;;;;;8.57;3.38;;;;;;;;;;4995020;28;20046;-73
2023/12/28 01:10:32;;;;;;;9.25;3.72;;;;;;;;;;4994114;28;20047;-73
2023/12/28 01:12:58;;;;;;;10.10;4.20;;;;;;;;;;4986603;28;20507;-73
2023/12/28 01:15:24;;;;;;;11.38;3.83;;;;;;;;;;4986787;28;20076;-73
2023/12/28 01:17:50;;;;;;;9.57;3.75;;;;;;;;;;4994389;28;20146;-73
2023/12/28 01:20:16;;;;;;;7.55;3.65;;;;;;;;;;4994203;28;20043;-73
2023/12/28 01:22:42;;;;;;;7.38;3.55;;;;;;;;;;4982098;28;20050;-73
2023/12/28 01:25:08;;;;;;;8.55;3.70;;;;;;;;;;4975687;28;20070;-73
2023/12/28 01:27:35;;;;;;;8.25;3.47;;;;;;;;;;4983254;28;20047;-73
2023/12/28 01:30:02;;;;;;;7.85;3.80;;;;;;;;;;4973916;28;20076;-73
2023/12/28 01:32:28;;;;;;;8.95;3.75;;;;;;;;;;4984251;28;20088;-73
2023/12/28 01:34:54;;;;;;;7.10;3.72;;;;;;;;;;4988022;28;20046;-73
2023/12/28 01:37:20;;;;;;;8.70;4.15;;;;;;;;;;4976176;28;20078;-73
2023/12/28 01:39:46;;;;;;;8.23;3.83;;;;;;;;;;4975382;28;20401;-73
2023/12/28 01:42:12;;;;;;;7.75;3.67;;;;;;;;;;4982034;28;20050;-73
2023/12/28 01:44:38;;;;;;;7.82;3.58;;;;;;;;;;4991276;28;20043;-73
2023/12/28 01:47:04;;;;;;;9.75;4.07;;;;;;;;;;4993838;28;20039;-73
2023/12/28 01:49:31;;;;;;;9.18;3.67;;;;;;;;;;4993106;28;20042;-73
2023/12/28 01:51:57;;;;;;;8.60;3.53;;;;;;;;;;4992539;28;20057;-73
2023/12/28 01:54:23;;;;;;;11.65;3.80;;;;;;;;;;4993409;28;20042;-73
2023/12/28 01:56:49;;;;;;;9.43;3.72;;;;;;;;;;4993448;28;20381;-73
2023/12/28 01:59:15;;;;;;;9.32;3.38;;;;;;;;;;4992495;28;20500;-73
2023/12/28 02:01:42;;;;;;;9.35;3.80;;;;;;;;;;4992104;28;20057;-73
2023/12/28 02:04:08;;;;;;;9.90;4.10;;;;;;;;;;4993444;28;20496;-73
2023/12/28 02:06:34;;;;;;;8.65;3.63;;;;;;;;;;4994238;28;20041;-73
2023/12/28 02:09:00;;;;;;;9.52;4.03;;;;;;;;;;4993350;28;20046;-73
2023/12/28 02:11:26;;;;;;;9.27;3.70;;;;;;;;;;4975654;28;20039;-73
2023/12/28 02:13:52;;;;;;;10.43;3.80;;;;;;;;;;4982369;28;20039;-73
2023/12/28 02:16:32;;;;;;;9.07;3.67;;;;;;;;;;4993472;28;20054;-73
2023/12/28 02:19:01;;;;;;;8.70;3.70;;;;;;;;;;4993146;28;20045;-73
2023/12/28 02:21:27;;;;;;;9.63;3.75;;;;;;;;;;4992961;28;20113;-72
2023/12/28 02:23:53;;;;;;;11.50;3.78;;;;;;;;;;4993371;28;20050;-73
2023/12/28 02:26:19;;;;;;;10.80;3.92;;;;;;;;;;4993950;28;20487;-73
2023/12/28 02:28:46;;;;;;;9.65;3.50;;;;;;;;;;4982302;28;20051;-73
2023/12/28 02:31:21;;;;;;;10.65;4.00;;;;;;;;;;4988985;28;20050;-73
2023/12/28 02:33:58;;;;;;;6.80;3.58;;;;;;;;;;4992061;28;20508;-73
2023/12/28 02:36:25;;;;;;;8.05;3.53;;;;;;;;;;4992508;28;20057;-73
2023/12/28 02:38:52;;;;;;;7.78;3.38;;;;;;;;;;4992512;28;20492;-73
2023/12/28 02:41:18;;;;;;;8.82;4.00;;;;;;;;;;4981648;28;20444;-73
2023/12/28 02:43:44;;;;;;;9.68;4.25;;;;;;;;;;4973913;28;20125;-73
2023/12/28 02:46:11;;;;;;;8.35;3.30;;;;;;;;;;4979682;28;20725;-73
2023/12/28 02:48:37;;;;;;;9.35;3.95;;;;;;;;;;4993044;28;20042;-73
2023/12/28 02:51:03;;;;;;;9.65;4.13;;;;;;;;;;4992290;28;20050;-73
2023/12/28 02:53:29;;;;;;;10.80;4.15;;;;;;;;;;4974532;28;20053;-73
2023/12/28 02:55:55;;;;;;;9.30;3.83;;;;;;;;;;4978129;28;20042;-73
2023/12/28 02:58:21;;;;;;;10.85;3.97;;;;;;;;;;4992821;28;20052;-73
2023/12/28 03:00:48;;;;;;;8.88;3.70;;;;;;;;;;4992400;28;20049;-73
2023/12/28 03:03:14;;;;;;;7.32;3.55;;;;;;;;;;4978939;28;20043;-73
2023/12/28 03:05:41;;;;;;;7.55;3.85;;;;;;;;;;4985174;28;20042;-73
2023/12/28 03:08:07;;;;;;;7.78;4.13;;;;;;;;;;4989877;28;20489;-73
2023/12/28 03:10:33;;;;;;;13.63;3.97;;;;;;;;;;4991614;28;20491;-73
2023/12/28 03:13:00;;;;;;;10.10;3.70;;;;;;;;;;4985078;28;20046;-73
2023/12/28 03:15:26;;;;;;;10.98;3.80;;;;;;;;;;4985030;28;20054;-73
2023/12/28 03:17:52;;;;;;;10.85;4.05;;;;;;;;;;4973658;28;20514;-73
2023/12/28 03:20:19;;;;;;;11.43;3.80;;;;;;;;;;4991752;28;20403;-73
2023/12/28 03:22:45;;;;;;;11.13;4.07;;;;;;;;;;4981360;28;20046;-73
2023/12/28 03:25:11;;;;;;;8.50;3.70;;;;;;;;;;4985653;28;20567;-73
2023/12/28 03:27:37;;;;;;;8.98;4.20;;;;;;;;;;4991933;28;20049;-73
2023/12/28 03:30:03;;;;;;;8.80;3.60;;;;;;;;;;4992572;28;20046;-73
2023/12/28 03:32:29;;;;;;;8.35;3.60;;;;;;;;;;4991419;28;20397;-73
2023/12/28 03:34:55;;;;;;;7.32;3.70;;;;;;;;;;4984191;28;20061;-73
2023/12/28 03:37:21;;;;;;;11.25;4.05;;;;;;;;;;4992615;28;20524;-73
2023/12/28 03:39:47;;;;;;;10.10;3.95;;;;;;;;;;4988464;28;20074;-73
2023/12/28 03:42:14;;;;;;;9.35;3.80;;;;;;;;;;4979578;28;20047;-73
2023/12/28 03:44:40;;;;;;;11.18;3.83;;;;;;;;;;4992212;28;20043;-73
2023/12/28 03:47:07;;;;;;;8.60;3.45;;;;;;;;;;4971942;28;20047;-73
2023/12/28 03:49:33;;;;;;;11.00;3.40;;;;;;;;;;4977194;28;20043;-73
2023/12/28 03:51:59;;;;;;;10.00;3.22;;;;;;;;;;4974045;28;20046;-73
2023/12/28 03:54:25;;;;;;;12.68;3.83;;;;;;;;;;4959664;28;20076;-73
2023/12/28 03:56:51;;;;;;;10.63;3.80;;;;;;;;;;4979530;28;20097;-73
2023/12/28 03:59:17;;;;;;;10.38;3.20;;;;;;;;;;4992127;28;20603;-73
2023/12/28 04:01:43;;;;;;;8.88;3.60;;;;;;;;;;4990829;28;20464;-73
2023/12/28 04:04:10;;;;;;;10.90;3.63;;;;;;;;;;4988020;28;20070;-73
2023/12/28 04:06:36;;;;;;;8.75;3.22;;;;;;;;;;4996056;28;20050;-73
2023/12/28 04:09:02;;;;;;;9.35;3.50;;;;;;;;;;4995792;28;20034;-73
2023/12/28 04:11:28;;;;;;;9.13;3.58;;;;;;;;;;4996194;28;20133;-73
2023/12/28 04:13:54;;;;;;;10.55;3.40;;;;;;;;;;4995855;28;20073;-73
2023/12/28 04:16:21;;;;;;;10.55;3.42;;;;;;;;;;4995810;28;20499;-74
2023/12/28 04:18:47;;;;;;;10.85;2.97;;;;;;;;;;4995244;28;20467;-73
2023/12/28 04:21:13;;;;;;;10.18;3.60;;;;;;;;;;4995441;28;20152;-73
2023/12/28 04:23:40;;;;;;;10.43;3.20;;;;;;;;;;4986004;28;20043;-73
2023/12/28 04:26:06;;;;;;;10.20;3.10;;;;;;;;;;4991516;28;20137;-73
2023/12/28 04:28:34;;;;;;;15.07;3.47;;;;;;;;;;4995578;28;20121;-73
2023/12/28 04:31:03;;;;;;;10.45;3.10;;;;;;;;;;4994692;28;20042;-73
2023/12/28 04:33:30;;;;;;;10.68;3.03;;;;;;;;;;4994100;28;20122;-74
2023/12/28 04:35:56;;;;;;;11.77;3.30;;;;;;;;;;4984209;28;20062;-73
2023/12/28 04:38:22;;;;;;;10.90;3.03;;;;;;;;;;4988272;28;20054;-73
2023/12/28 04:40:48;;;;;;;11.95;3.58;;;;;;;;;;4995779;28;20096;-73
2023/12/28 04:43:14;;;;;;;9.90;3.13;;;;;;;;;;4992706;28;20042;-73
2023/12/28 04:45:40;;;;;;;9.75;2.80;;;;;;;;;;4976911;28;20038;-74
2023/12/28 04:48:06;;;;;;;8.73;2.55;;;;;;;;;;4976184;28;20437;-73
2023/12/28 04:50:32;;;;;;;10.80;2.70;;;;;;;;;;4983343;28;20431;-74
2023/12/28 04:52:58;;;;;;;13.32;3.13;;;;;;;;;;4993699;28;20050;-74
2023/12/28 04:55:24;;;;;;;13.00;2.85;;;;;;;;;;4993489;28;20042;-74
2023/12/28 04:57:50;;;;;;;12.93;2.95;;;;;;;;;;4976492;28;20070;-74
2023/12/28 05:00:16;;;;;;;11.25;2.70;;;;;;;;;;4988803;28;20058;-74
2023/12/28 05:02:42;;;;;;;10.98;3.05;;;;;;;;;;4994478;28;20456;-73
2023/12/28 05:05:10;;;;;;;11.50;2.70;;;;;;;;;;4951723;28;20130;-74
2023/12/28 05:07:36;;;;;;;11.23;2.85;;;;;;;;;;4982168;28;20500;-73
2023/12/28 05:10:02;;;;;;;13.20;3.20;;;;;;;;;;4994876;28;20039;-74
2023/12/28 05:12:28;;;;;;;10.77;2.50;;;;;;;;;;4994492;28;20038;-73
2023/12/28 05:14:54;;;;;;;10.98;2.75;;;;;;;;;;4993772;28;20064;-74
2023/12/28 05:17:20;;;;;;;13.15;2.85;;;;;;;;;;4992431;28;20108;-74
2023/12/28 05:19:46;;;;;;;12.50;2.90;;;;;;;;;;4993048;28;20042;-73
2023/12/28 05:22:12;;;;;;;14.57;3.22;;;;;;;;;;4960963;28;20046;-73
2023/12/28 05:24:38;;;;;;;11.07;2.65;;;;;;;;;;4993740;28;20081;-74
2023/12/28 05:27:04;;;;;;;10.98;2.58;;;;;;;;;;4994102;28;20492;-73
2023/12/28 05:29:30;;;;;;;14.00;2.80;;;;;;;;;;4993751;28;20098;-74
2023/12/28 05:31:56;;;;;;;11.40;2.50;;;;;;;;;;4993659;28;20050;-73
2023/12/28 05:34:22;;;;;;;12.52;2.65;;;;;;;;;;4994162;28;20045;-73
2023/12/28 05:36:48;;;;;;;16.08;3.00;;;;;;;;;;4992801;28;20047;-73
2023/12/28 05:39:14;;;;;;;13.13;2.63;;;;;;;;;;4990803;28;20180;-73
2023/12/28 05:41:40;;;;;;;12.75;2.72;;;;;;;;;;4990132;28;20038;-73
2023/12/28 05:44:07;;;;;;;14.85;2.50;;;;;;;;;;4974816;28;20046;-73
2023/12/28 05:46:33;;;;;;;12.30;2.90;;;;;;;;;;4993285;28;20165;-73
2023/12/28 05:48:59;;;;;;;14.23;3.17;;;;;;;;;;4991690;28;20400;-73
2023/12/28 05:51:25;;;;;;;11.70;2.38;;;;;;;;;;4976109;28;20053;-73
2023/12/28 05:53:51;;;;;;;12.65;2.50;;;;;;;;;;4993534;28;20050;-74
2023/12/28 05:56:17;;;;;;;10.30;2.70;;;;;;;;;;4985503;28;20047;-74
2023/12/28 05:58:43;;;;;;;9.98;2.50;;;;;;;;;;4993236;28;20038;-74
2023/12/28 06:01:09;;;;;;;16.27;3.00;;;;;;;;;;4993092;28;20108;-74
2023/12/28 06:03:35;;;;;;;13.52;2.70;;;;;;;;;;4975925;28;20562;-74
2023/12/28 06:06:01;;;;;;;15.18;2.78;;;;;;;;;;4993997;28;20070;-74
2023/12/28 06:08:27;;;;;;;15.48;2.92;;;;;;;;;;4993518;28;20065;-73
2023/12/28 06:10:54;;;;;;;11.45;2.47;;;;;;;;;;4993632;28;20042;-74
2023/12/28 06:13:20;;;;;;;14.95;3.20;;;;;;;;;;4993365;28;20042;-74
2023/12/28 06:15:46;;;;;;;13.93;2.83;;;;;;;;;;4989842;28;20063;-74
2023/12/28 06:18:12;;;;;;;16.05;3.17;;;;;;;;;;4992983;28;20519;-74
2023/12/28 06:20:38;;;;;;;16.42;3.33;;;;;;;;;;4982614;28;20051;-74
2023/12/28 06:23:04;;;;;;;15.20;2.65;;;;;;;;;;4988689;28;20054;-73
2023/12/28 06:25:30;;;;;;;14.18;2.88;;;;;;;;;;4993732;28;20038;-74
2023/12/28 06:27:56;;;;;;;16.83;3.00;;;;;;;;;;4993557;28;20054;-74
2023/12/28 06:30:22;;;;;;;15.02;3.05;;;;;;;;;;4958045;28;20058;-74
2023/12/28 06:32:49;;;;;;;20.95;3.45;;;;;;;;;;4982629;28;20050;-74
2023/12/28 06:35:15;;;;;;;17.95;2.97;;;;;;;;;;4984498;28;20047;-74
2023/12/28 06:37:43;;;;;;;15.40;2.92;;;;;;;;;;4983229;28;20057;-74
2023/12/28 06:40:09;;;;;;;15.70;3.22;;;;;;;;;;4985332;28;20377;-74
2023/12/28 06:42:35;;;;;;;17.23;3.78;;;;;;;;;;4984717;28;20049;-74
2023/12/28 06:45:01;;;;;;;15.50;2.53;;;;;;;;;;4982035;28;20046;-74
2023/12/28 06:47:27;;;;;;;14.55;2.60;;;;;;;;;;4981188;28;20515;-74
2023/12/28 06:49:53;;;;;;;15.77;3.15;;;;;;;;;;4985159;28;20504;-74
2023/12/28 06:52:19;;;;;;;16.23;2.80;;;;;;;;;;4984324;28;20490;-74
2023/12/28 06:54:45;;;;;;;15.02;2.67;;;;;;;;;;4983968;28;20042;-74
2023/12/28 06:57:12;;;;;;;16.98;3.03;;;;;;;;;;4981823;28;20447;-74
2023/12/28 06:59:38;;;;;;;15.45;3.22;;;;;;;;;;4982925;28;20069;-74
2023/12/28 07:02:04;;;;;;;16.38;2.85;;;;;;;;;;4984244;28;20038;-74
2023/12/28 07:04:30;;;;;;;16.77;3.22;;;;;;;;;;4992943;28;20477;-74
2023/12/28 07:06:56;;;;;;;14.70;2.85;;;;;;;;;;4986430;28;20506;-74
2023/12/28 07:09:22;;;;;;;13.48;2.80;;;;;;;;;;4985545;28;20077;-74
2023/12/28 07:11:48;;;;;;;15.68;3.13;;;;;;;;;;4978031;28;20049;-74
2023/12/28 07:14:14;;;;;;;18.40;3.33;;;;;;;;;;4994496;28;20053;-74
2023/12/28 07:16:40;;;;;;;16.63;2.85;;;;;;;;;;4996669;28;20054;-74
2023/12/28 07:19:06;;;;;;;18.02;3.20;;;;;;;;;;4975425;28;20050;-74
2023/12/28 07:21:32;;;;;;;17.77;3.22;;;;;;;;;;4986498;28;20038;-74
2023/12/28 07:23:58;;;;;;;17.15;3.15;;;;;;;;;;4987792;28;20513;-74
2023/12/28 07:26:25;;;;;;;20.67;4.45;;;;;;;;;;4978552;28;20503;-74
2023/12/28 07:28:51;;;;;;;20.77;3.55;;;;;;;;;;4984936;28;20046;-74
2023/12/28 07:31:27;;;;;;;18.60;3.42;;;;;;;;;;4980852;28;20038;-74
2023/12/28 07:33:53;;;;;;;19.52;3.35;;;;;;;;;;4996422;28;20129;-74
2023/12/28 07:36:19;;;;;;;19.10;3.53;;;;;;;;;;4982615;28;20047;-74
2023/12/28 07:38:46;;;;;;;18.77;3.10;;;;;;;;;;4968929;28;20046;-74
2023/12/28 07:41:12;;;;;;;23.80;3.53;;;;;;;;;;4964079;28;20050;-74
2023/12/28 07:43:38;;;;;;;20.42;3.28;;;;;;;;;;4994307;28;20113;-74
2023/12/28 07:46:04;;;;;;;18.67;3.40;;;;;;;;;;4986349;28;20058;-74
2023/12/28 07:48:31;;;;;;;17.73;2.88;;;;;;;;;;4991319;28;20103;-74
2023/12/28 07:50:57;;;;;;;18.65;3.17;;;;;;;;;;4992147;28;20053;-74
2023/12/28 07:53:23;;;;;;;18.13;3.70;;;;;;;;;;4988834;28;20388;-74
2023/12/28 07:55:49;;;;;;;22.33;3.22;;;;;;;;;;4988344;28;20056;-74
2023/12/28 07:58:16;;;;;;;19.33;3.40;;;;;;;;;;4976296;28;20411;-74
2023/12/28 08:00:42;;;;;;;19.55;4.07;;;;;;;;;;4990242;28;20075;-74
2023/12/28 08:03:08;;;;;;;25.25;3.72;;;;;;;;;;4991785;28;20085;-74
2023/12/28 08:05:34;;;;;;;21.35;3.20;;;;;;;;;;4995055;28;20399;-74
2023/12/28 08:08:00;;;;;;;19.50;3.85;;;;;;;;;;4995081;28;20137;-74
2023/12/28 08:10:26;;;;;;;19.65;3.33;;;;;;;;;;4995276;28;20050;-74
2023/12/28 08:12:52;;;;;;;22.52;3.72;;;;;;;;;;4995601;28;20045;-73
2023/12/28 08:15:18;;;;;;;20.13;4.03;;;;;;;;;;4994508;28;20104;-74
2023/12/28 08:17:44;;;;;;;19.73;3.97;;;;;;;;;;4995361;28;20052;-74
2023/12/28 08:20:11;;;;;;;18.10;3.47;;;;;;;;;;4995146;28;20042;-74
2023/12/28 08:22:37;;;;;;;22.35;3.97;;;;;;;;;;4993518;28;20081;-74
2023/12/28 08:25:03;;;;;;;24.40;4.50;;;;;;;;;;4979286;28;20137;-74
2023/12/28 08:27:29;;;;;;;26.15;4.60;;;;;;;;;;4995077;28;20441;-74
2023/12/28 08:29:55;;;;;;;30.23;5.55;;;;;;;;;;4988117;28;20552;-74
2023/12/28 08:32:21;;;;;;;23.88;5.13;;;;;;;;;;4988454;28;20480;-74
2023/12/28 08:34:47;;;;;;;24.80;6.18;;;;;;;;;;4995235;28;20050;-74
2023/12/28 08:37:14;;;;;;;24.98;5.22;;;;;;;;;;4994830;28;20485;-74
2023/12/28 08:39:40;;;;;;;24.02;4.75;;;;;;;;;;4988748;28;20046;-74
2023/12/28 08:42:06;;;;;;;23.58;4.43;;;;;;;;;;4986979;28;20457;-74
2023/12/28 08:44:33;;;;;;;23.33;5.10;;;;;;;;;;4990228;28;20042;-74
2023/12/28 08:46:59;;;;;;;25.48;6.43;;;;;;;;;;4975304;28;20043;-74
2023/12/28 08:49:26;;;;;;;28.17;6.25;;;;;;;;;;4993112;28;20059;-74
2023/12/28 08:51:52;;;;;;;23.02;5.57;;;;;;;;;;4993256;28;20393;-74
2023/12/28 08:54:18;;;;;;;34.17;6.70;;;;;;;;;;4983652;28;20035;-74
2023/12/28 08:56:44;;;;;;;25.92;6.13;;;;;;;;;;4994218;28;20050;-74
2023/12/28 08:59:10;;;;;;;22.58;6.07;;;;;;;;;;4994388;28;20369;-74
2023/12/28 09:01:37;;;;;;;24.10;5.32;;;;;;;;;;4992777;28;20038;-74
2023/12/28 09:04:03;;;;;;;28.70;6.20;;;;;;;;;;4975826;28;20503;-74
2023/12/28 09:06:29;;;;;;;28.23;6.18;;;;;;;;;;4992853;28;20050;-74
2023/12/28 09:08:56;;;;;;;27.35;5.85;;;;;;;;;;4958762;28;20172;-74
2023/12/28 09:11:22;;;;;;;37.38;6.43;;;;;;;;;;4983041;28;20532;-74
2023/12/28 09:13:48;;;;;;;26.58;5.57;;;;;;;;;;4994723;28;20042;-74
2023/12/28 09:16:15;;;;;;;22.20;5.32;;;;;;;;;;4994420;28;20061;-74
2023/12/28 09:18:41;;;;;;;19.92;4.32;;;;;;;;;;4994098;28;20061;-74
2023/12/28 09:21:08;;;;;;;26.27;5.20;;;;;;;;;;4969458;28;20047;-74
2023/12/28 09:23:34;;;;;;;25.33;5.00;;;;;;;;;;4993750;28;20051;-74
2023/12/28 09:26:01;;;;;;;25.42;6.57;;;;;;;;;;4994524;28;20053;-74
2023/12/28 09:28:27;;;;;;;31.08;6.60;;;;;;;;;;4991748;28;20042;-74
2023/12/28 09:30:53;;;;;;;30.73;6.63;;;;;;;;;;4991903;28;20046;-73
2023/12/28 09:33:19;;;;;;;26.02;4.93;;;;;;;;;;4993925;28;20053;-74
2023/12/28 09:35:45;;;;;;;21.88;4.55;;;;;;;;;;4993771;28;20096;-74
2023/12/28 09:38:11;;;;;;;28.30;5.72;;;;;;;;;;4993464;28;20038;-74
2023/12/28 09:40:37;;;;;;;22.45;5.22;;;;;;;;;;4993696;28;20057;-74
2023/12/28 09:43:12;;;;;;;24.05;4.32;;;;;;;;;;4993978;28;20039;-74
2023/12/28 09:45:38;;;;;;;23.27;4.22;;;;;;;;;;4990753;28;20042;-74
2023/12/28 09:48:06;;;;;;;27.02;4.95;;;;;;;;;;4993406;28;20042;-74
2023/12/28 09:50:32;;;;;;;27.70;4.57;;;;;;;;;;4993926;28;20113;-74
2023/12/28 09:52:59;;;;;;;24.70;4.22;;;;;;;;;;4986245;28;20124;-74
2023/12/28 09:55:25;;;;;;;19.90;3.65;;;;;;;;;;4973234;28;20483;-74
2023/12/28 09:57:55;;;;;;;25.08;4.78;;;;;;;;;;4988904;28;20101;-74
2023/12/28 10:00:21;;;;;;;25.75;4.47;;;;;;;;;;4982067;28;20507;-74
2023/12/28 10:02:47;;;;;;;21.40;4.32;;;;;;;;;;4993401;28;20491;-74
2023/12/28 10:05:17;;;;;;;21.92;4.80;;;;;;;;;;4993654;28;20141;-74
2023/12/28 10:07:44;;;;;;;23.25;4.57;;;;;;;;;;4992918;28;20050;-74
2023/12/28 10:10:10;;;;;;;21.40;4.20;;;;;;;;;;4992341;28;20057;-74
2023/12/28 10:12:36;;;;;;;26.23;4.50;;;;;;;;;;4989322;28;20046;-74
2023/12/28 10:15:02;;;;;;;21.63;4.07;;;;;;;;;;4969484;28;20054;-74
2023/12/28 10:17:28;;;;;;;21.10;4.15;;;;;;;;;;4987898;28;20061;-74
2023/12/28 10:20:02;;;;;;;20.45;3.83;;;;;;;;;;4991168;28;20054;-74
2023/12/28 10:22:28;;;;;;;22.17;3.55;;;;;;;;;;4991578;28;20459;-74
2023/12/28 10:24:54;;;;;;;20.45;3.67;;;;;;;;;;4987629;28;20050;-74
2023/12/28 10:27:20;;;;;;;20.77;4.22;;;;;;;;;;4986383;28;20050;-74
2023/12/28 10:29:46;;;;;;;23.65;3.97;;;;;;;;;;4986687;28;20054;-74
2023/12/28 10:32:14;;;;;;;21.65;4.00;;;;;;;;;;4981542;28;20057;-74
2023/12/28 10:34:40;;;;;;;24.75;4.97;;;;;;;;;;4965600;28;20065;-74
2023/12/28 10:37:06;;;;;;;23.60;4.60;;;;;;;;;;4981469;28;20082;-74
2023/12/28 10:39:34;;;;;;;20.58;3.97;;;;;;;;;;4973413;28;20519;-74
2023/12/28 10:42:01;;;;;;;22.15;3.67;;;;;;;;;;4990822;28;20058;-74
2023/12/28 10:44:28;;;;;;;23.45;3.95;;;;;;;;;;4973491;28;20108;-74
2023/12/28 10:46:58;;;;;;;20.27;3.80;;;;;;;;;;4991539;28;20060;-74
2023/12/28 10:49:25;;;;;;;24.15;3.85;;;;;;;;;;4988349;28;20065;-74
2023/12/28 10:51:52;;;;;;;22.92;4.13;;;;;;;;;;4976515;28;20081;-74
2023/12/28 10:54:38;;;;;;;25.17;3.65;;;;;;;;;;4960816;28;20038;-74
2023/12/28 10:57:10;;;;;;;24.05;4.50;;;;;;;;;;4992039;28;20065;-74
2023/12/28 10:59:53;;;;;;;21.95;3.88;;;;;;;;;;4987301;28;20165;-74
2023/12/28 11:02:22;;;;;;;19.58;3.80;;;;;;;;;;4975065;28;20058;-74
2023/12/28 11:04:49;;;;;;;23.30;3.75;;;;;;;;;;4992573;28;20038;-74
2023/12/28 11:07:17;;;;;;;21.10;3.60;;;;;;;;;;4991927;28;20133;-74
2023/12/28 11:09:44;;;;;;;29.80;4.85;;;;;;;;;;4991219;28;20046;-74
2023/12/28 11:12:10;;;;;;;24.08;3.90;;;;;;;;;;4973479;28;20077;-73
2023/12/28 11:14:36;;;;;;;18.95;3.63;;;;;;;;;;4992150;28;20046;-73
2023/12/28 11:17:02;;;;;;;20.77;3.63;;;;;;;;;;4988785;28;20062;-72
2023/12/28 11:19:30;;;;;;;23.00;3.95;;;;;;;;;;4991880;28;20053;-74
2023/12/28 11:21:57;;;;;;;21.67;4.07;;;;;;;;;;4988373;28;20085;-74
2023/12/28 11:24:23;;;;;;;21.33;3.70;;;;;;;;;;4989478;28;20054;-74
2023/12/28 11:26:56;;;;;;;20.20;3.80;;;;;;;;;;4991944;28;20476;-74
2023/12/28 11:29:23;;;;;;;17.70;3.70;;;;;;;;;;4988698;28;20509;-74
2023/12/28 11:31:53;;;;;;;21.88;3.97;;;;;;;;;;4988422;28;20053;-74
2023/12/28 11:34:19;;;;;;;26.40;4.82;;;;;;;;;;4992220;28;20050;-74
2023/12/28 11:36:50;;;;;;;24.48;4.53;;;;;;;;;;4986340;28;20042;-74
2023/12/28 11:39:21;;;;;;;19.40;4.38;;;;;;;;;;4991611;28;20142;-74
2023/12/28 11:41:47;;;;;;;23.63;3.95;;;;;;;;;;4992157;28;20102;-74
2023/12/28 11:44:13;;;;;;;28.20;5.20;;;;;;;;;;4991313;28;20372;-74
2023/12/28 11:46:39;;;;;;;21.38;4.10;;;;;;;;;;4990090;28;20389;-74
2023/12/28 11:49:09;;;;;;;25.42;5.20;;;;;;;;;;4991982;28;20061;-74
2023/12/28 11:51:37;;;;;;;22.67;4.40;;;;;;;;;;4991007;28;20522;-74
2023/12/28 11:54:03;;;;;;;25.00;4.05;;;;;;;;;;4989571;28;20054;-74
2023/12/28 11:56:30;;;;;;;24.55;4.30;;;;;;;;;;4994213;28;20078;-74
2023/12/28 11:58:56;;;;;;;25.45;4.15;;;;;;;;;;4990461;28;20054;-74
2023/12/28 12:01:22;;;;;;;20.90;3.83;;;;;;;;;;4993977;28;20205;-74
2023/12/28 12:03:49;;;;;;;22.77;3.97;;;;;;;;;;4993389;28;20042;-74
2023/12/28 12:06:16;;;;;;;27.10;4.38;;;;;;;;;;4990242;28;20089;-74
2023/12/28 12:08:45;;;;;;;19.33;3.80;;;;;;;;;;4994112;28;20117;-74
2023/12/28 12:11:12;;;;;;;25.23;4.03;;;;;;;;;;4993093;28;20056;-74
2023/12/28 12:13:38;;;;;;;19.20;3.15;;;;;;;;;;4991113;28;20038;-74
2023/12/28 12:16:05;;;;;;;26.23;4.07;;;;;;;;;;4992685;28;20062;-74
2023/12/28 12:18:33;;;;;;;24.88;4.15;;;;;;;;;;4989516;28;20049;-74
2023/12/28 12:20:59;;;;;;;17.13;3.70;;;;;;;;;;4946697;28;20097;-74
2023/12/28 12:23:25;;;;;;;19.77;3.63;;;;;;;;;;4958869;28;20047;-74
2023/12/28 12:25:52;;;;;;;23.10;3.85;;;;;;;;;;4994217;28;20061;-74
2023/12/28 12:28:18;;;;;;;23.23;4.05;;;;;;;;;;4986410;28;20739;-74
2023/12/28 12:30:57;;;;;;;22.55;3.80;;;;;;;;;;4984155;28;20492;-74
2023/12/28 12:33:24;;;;;;;24.88;4.40;;;;;;;;;;4990099;28;20549;-74
2023/12/28 12:35:51;;;;;;;25.13;3.95;;;;;;;;;;4994022;28;20051;-74
2023/12/28 12:38:17;;;;;;;21.40;3.65;;;;;;;;;;4995558;28;20404;-74
2023/12/28 12:40:43;;;;;;;22.38;4.00;;;;;;;;;;4994969;28;20042;-74
2023/12/28 12:43:10;;;;;;;23.60;4.25;;;;;;;;;;4985481;28;20070;-74
2023/12/28 12:45:36;;;;;;;24.27;4.72;;;;;;;;;;4975330;28;20046;-74
2023/12/28 12:48:05;;;;;;;25.13;4.68;;;;;;;;;;4995126;28;20511;-74
2023/12/28 12:50:32;;;;;;;24.48;4.32;;;;;;;;;;4995038;28;20480;-74
2023/12/28 12:53:02;;;;;;;22.23;4.35;;;;;;;;;;4994583;28;20042;-74
2023/12/28 12:55:28;;;;;;;24.17;4.05;;;;;;;;;;4994237;28;20174;-74
2023/12/28 12:57:57;;;;;;;24.95;4.68;;;;;;;;;;4983234;28;20050;-74
2023/12/28 13:00:23;;;;;;;24.60;4.90;;;;;;;;;;4982117;28;20046;-74
2023/12/28 13:02:56;;;;;;;25.40;4.60;;;;;;;;;;4975661;28;20066;-74
2023/12/28 13:05:22;;;;;;;20.70;4.10;;;;;;;;;;4994272;28;20126;-74
2023/12/28 13:07:48;;;;;;;20.05;4.25;;;;;;;;;;4994894;28;20100;-74
2023/12/28 13:10:14;;;;;;;29.17;5.25;;;;;;;;;;4994623;28;20042;-74
2023/12/28 13:12:40;;;;;;;25.98;6.55;;;;;;;;;;4994106;28;20050;-74
2023/12/28 13:15:09;;;;;;;27.00;5.63;;;;;;;;;;4989936;28;20062;-74
2023/12/28 13:17:35;;;;;;;25.13;4.85;;;;;;;;;;4975392;28;20366;-74
2023/12/28 13:20:01;;;;;;;27.55;4.35;;;;;;;;;;4957719;28;20047;-74
2023/12/28 13:22:27;;;;;;;27.98;5.03;;;;;;;;;;4975350;28;20054;-74
2023/12/28 13:24:53;;;;;;;24.77;4.30;;;;;;;;;;4985884;28;20050;-74
2023/12/28 13:27:19;;;;;;;26.05;4.28;;;;;;;;;;4994101;28;20500;-74
2023/12/28 13:29:45;;;;;;;24.50;4.55;;;;;;;;;;4993204;28;20500;-74
2023/12/28 13:32:11;;;;;;;23.25;4.80;;;;;;;;;;4994365;28;20097;-74
2023/12/28 13:34:37;;;;;;;27.80;5.35;;;;;;;;;;4977703;28;20713;-75
2023/12/28 13:37:03;;;;;;;28.58;4.60;;;;;;;;;;4994512;28;20392;-74
2023/12/28 13:39:29;;;;;;;24.63;4.30;;;;;;;;;;4993877;28;20057;-74
2023/12/28 13:41:56;;;;;;;29.20;4.93;;;;;;;;;;4993107;28;20129;-74
2023/12/28 13:44:22;;;;;;;24.45;4.65;;;;;;;;;;4991998;28;20539;-74
2023/12/28 13:46:49;;;;;;;25.20;4.88;;;;;;;;;;4992151;28;20133;-74
2023/12/28 13:49:15;;;;;;;23.05;4.20;;;;;;;;;;4992569;28;20126;-74
2023/12/28 13:51:41;;;;;;;23.35;4.28;;;;;;;;;;4992302;28;20061;-74
2023/12/28 13:54:07;;;;;;;22.35;4.07;;;;;;;;;;4980424;28;20126;-74
2023/12/28 13:56:33;;;;;;;24.33;4.82;;;;;;;;;;4974179;28;20061;-74
2023/12/28 13:58:59;;;;;;;29.10;4.22;;;;;;;;;;4990776;28;20061;-74
2023/12/28 14:01:26;;;;;;;23.10;5.07;;;;;;;;;;4974649;28;20047;-74
2023/12/28 14:03:52;;;;;;;24.67;4.05;;;;;;;;;;4974417;28;20051;-74
2023/12/28 14:06:19;;;;;;;24.20;4.10;;;;;;;;;;4993065;28;20055;-74
2023/12/28 14:08:45;;;;;;;19.77;4.07;;;;;;;;;;4960198;28;20100;-74
2023/12/28 14:11:11;;;;;;;20.00;3.88;;;;;;;;;;4959350;28;20404;-74
2023/12/28 14:13:37;;;;;;;27.67;4.78;;;;;;;;;;4993415;28;20384;-74
2023/12/28 14:16:04;;;;;;;25.48;4.55;;;;;;;;;;4993360;28;20492;-74
2023/12/28 14:18:30;;;;;;;22.20;4.45;;;;;;;;;;4985201;28;20049;-74
2023/12/28 14:20:56;;;;;;;16.63;3.25;;;;;;;;;;4980982;28;20058;-74
2023/12/28 14:23:22;;;;;;;21.15;3.53;;;;;;;;;;4986502;28;20042;-74
2023/12/28 14:25:53;;;;;;;26.17;4.55;;;;;;;;;;4984664;28;20087;-74
2023/12/28 14:28:19;;;;;;;20.77;4.10;;;;;;;;;;4965525;28;20049;-74
2023/12/28 14:30:45;;;;;;;24.20;4.00;;;;;;;;;;4988153;28;20465;-74